createdAt,value
2022-08-14T00:02:18.739Z,26.50
2022-08-14T00:04:47.389Z,26.50
2022-08-14T00:07:15.746Z,26.50
2022-08-14T00:10:02.202Z,26.40
2022-08-14T00:12:39.482Z,26.40
2022-08-14T00:15:15.157Z,26.40
2022-08-14T00:17:48.221Z,26.40
2022-08-14T00:20:30.465Z,26.40
2022-08-14T00:23:11.865Z,26.30
2022-08-14T00:25:42.800Z,26.30
2022-08-14T00:28:15.020Z,26.40
2022-08-14T00:30:45.431Z,26.30
2022-08-14T00:33:16.038Z,26.30
2022-08-14T00:36:36.591Z,26.30
2022-08-14T00:38:35.064Z,26.30
2022-08-14T00:41:05.235Z,26.20
2022-08-14T00:43:33.722Z,26.20
2022-08-14T00:46:07.989Z,26.20
2022-08-14T00:48:38.487Z,26.20
2022-08-14T00:51:08.904Z,26.20
2022-08-14T00:53:39.909Z,26.10
2022-08-14T00:56:15.410Z,26.10
2022-08-14T00:58:45.433Z,26.10
2022-08-14T01:01:19.252Z,26.10
2022-08-14T01:03:52.873Z,26.10
2022-08-14T01:06:21.845Z,26.10
2022-08-14T01:08:58.057Z,26.10
2022-08-14T01:11:35.494Z,26.10
2022-08-14T01:14:25.684Z,26.10
2022-08-14T01:16:55.716Z,26.10
2022-08-14T01:19:41.817Z,26.00
2022-08-14T01:22:18.650Z,26.00
2022-08-14T01:24:48.472Z,26.00
2022-08-14T01:27:22.356Z,26.00
2022-08-14T01:29:59.259Z,26.00
2022-08-14T01:32:35.534Z,25.90
2022-08-14T01:35:18.769Z,25.90
2022-08-14T01:37:56.505Z,25.90
2022-08-14T01:40:37.084Z,25.90
2022-08-14T01:43:18.439Z,25.90
2022-08-14T01:45:57.801Z,25.80
2022-08-14T01:48:36.992Z,25.80
2022-08-14T01:51:19.297Z,25.80
2022-08-14T01:53:55.330Z,25.70
2022-08-14T01:56:37.162Z,25.70
2022-08-14T01:59:09.605Z,25.70
2022-08-14T02:01:41.930Z,25.70
2022-08-14T02:04:54.774Z,25.70
2022-08-14T02:07:15.661Z,25.60
2022-08-14T02:09:45.768Z,25.60
2022-08-14T02:12:26.497Z,25.60
2022-08-14T02:15:00.308Z,25.60
2022-08-14T02:17:31.050Z,25.50
2022-08-14T02:20:00.120Z,25.50
2022-08-14T02:22:33.406Z,25.50
2022-08-14T02:25:04.130Z,25.50
2022-08-14T02:28:24.093Z,25.50
2022-08-14T02:30:20.813Z,25.50
2022-08-14T02:32:50.947Z,25.40
2022-08-14T02:35:21.812Z,25.40
2022-08-14T02:37:50.877Z,25.40
2022-08-14T02:40:32.148Z,25.40
2022-08-14T02:43:03.762Z,25.40
2022-08-14T02:45:38.414Z,25.40
2022-08-14T02:49:01.918Z,25.40
2022-08-14T02:51:05.091Z,25.30
2022-08-14T02:53:33.631Z,25.30
2022-08-14T02:56:29.667Z,25.30
2022-08-14T02:59:02.086Z,25.30
2022-08-14T03:01:43.628Z,25.20
2022-08-14T03:04:20.699Z,25.20
2022-08-14T03:06:57.788Z,25.20
2022-08-14T03:09:42.299Z,25.10
2022-08-14T03:12:31.078Z,25.10
2022-08-14T03:15:00.592Z,25.10
2022-08-14T03:17:31.698Z,25.00
2022-08-14T03:20:00.485Z,25.10
2022-08-14T03:22:29.956Z,25.00
2022-08-14T03:24:58.380Z,25.00
2022-08-14T03:27:47.968Z,25.00
2022-08-14T03:30:23.425Z,25.00
2022-08-14T03:32:52.445Z,25.00
2022-08-14T03:35:24.466Z,25.00
2022-08-14T03:39:14.329Z,25.00
2022-08-14T03:40:58.925Z,25.00
2022-08-14T03:43:32.444Z,25.00
2022-08-14T03:46:01.355Z,25.00
2022-08-14T03:48:40.449Z,25.00
2022-08-14T03:51:10.582Z,25.00
2022-08-14T03:53:43.556Z,24.90
2022-08-14T03:56:15.071Z,25.00
2022-08-14T03:58:56.941Z,25.00
2022-08-14T04:01:29.501Z,24.90
2022-08-14T04:04:10.839Z,25.00
2022-08-14T04:06:42.610Z,25.00
2022-08-14T04:09:16.910Z,25.00
2022-08-14T04:11:46.351Z,25.00
2022-08-14T04:14:16.553Z,25.00
2022-08-14T04:16:47.498Z,25.00
2022-08-14T04:19:17.464Z,25.00
2022-08-14T04:22:01.772Z,25.00
2022-08-14T04:24:38.224Z,25.00
2022-08-14T04:27:09.602Z,25.00
2022-08-14T04:29:40.738Z,25.00
2022-08-14T04:32:59.212Z,25.00
2022-08-14T04:35:01.101Z,25.00
2022-08-14T04:37:53.613Z,25.00
2022-08-14T04:40:40.434Z,25.00
2022-08-14T04:43:38.380Z,25.00
2022-08-14T04:46:54.799Z,25.00
2022-08-14T04:49:00.435Z,25.00
2022-08-14T04:51:37.492Z,25.00
2022-08-14T04:54:16.682Z,25.00
2022-08-14T04:56:45.835Z,25.10
2022-08-14T04:59:14.177Z,25.10
2022-08-14T05:01:49.050Z,25.10
2022-08-14T05:04:20.967Z,25.10
2022-08-14T05:06:53.711Z,25.10
2022-08-14T05:09:23.879Z,25.10
2022-08-14T05:11:53.116Z,25.10
2022-08-14T05:14:45.700Z,25.10
2022-08-14T05:17:14.369Z,25.20
2022-08-14T05:19:44.202Z,25.20
2022-08-14T05:22:31.376Z,25.20
2022-08-14T05:25:00.273Z,25.20
2022-08-14T05:27:30.899Z,25.20
2022-08-14T05:30:07.172Z,25.30
2022-08-14T05:32:40.910Z,25.30
2022-08-14T05:35:12.533Z,25.30
2022-08-14T05:37:54.427Z,25.40
2022-08-14T05:40:23.546Z,25.40
2022-08-14T05:42:53.121Z,25.40
2022-08-14T05:45:21.642Z,25.40
2022-08-14T05:47:52.538Z,25.40
2022-08-14T05:50:21.050Z,25.50
2022-08-14T05:52:52.440Z,25.50
2022-08-14T05:55:23.002Z,25.50
2022-08-14T05:57:57.966Z,25.50
2022-08-14T06:00:38.767Z,25.50
2022-08-14T06:03:15.169Z,25.50
2022-08-14T06:05:44.111Z,25.40
2022-08-14T06:08:31.428Z,25.50
2022-08-14T06:11:07.491Z,25.50
2022-08-14T06:13:41.095Z,25.50
2022-08-14T06:16:17.699Z,25.50
2022-08-14T06:18:52.359Z,25.40
2022-08-14T06:21:21.594Z,25.40
2022-08-14T06:23:51.663Z,25.40
2022-08-14T06:26:22.064Z,25.40
2022-08-14T06:28:52.285Z,25.40
2022-08-14T06:31:22.701Z,25.50
2022-08-14T06:35:10.610Z,25.50
2022-08-14T06:36:41.313Z,25.60
2022-08-14T06:39:10.802Z,25.60
2022-08-14T06:41:58.060Z,25.70
2022-08-14T06:44:30.721Z,25.80
2022-08-14T06:47:02.250Z,25.80
2022-08-14T06:49:40.637Z,25.80
2022-08-14T06:52:15.305Z,25.90
2022-08-14T06:54:44.958Z,25.90
2022-08-14T06:57:14.198Z,26.00
2022-08-14T06:59:44.596Z,26.00
2022-08-14T07:02:30.679Z,26.10
2022-08-14T07:05:22.848Z,26.10
2022-08-14T07:07:52.669Z,26.20
2022-08-14T07:10:25.443Z,26.30
2022-08-14T07:13:03.890Z,26.40
2022-08-14T07:15:39.687Z,26.50
2022-08-14T07:18:12.255Z,26.60
2022-08-14T07:20:44.347Z,26.70
2022-08-14T07:23:19.919Z,26.70
2022-08-14T07:25:51.730Z,26.80
2022-08-14T07:28:23.689Z,26.80
2022-08-14T07:30:56.308Z,26.90
2022-08-14T07:33:29.904Z,26.90
2022-08-14T07:36:03.360Z,26.90
2022-08-14T07:38:52.641Z,26.90
2022-08-14T07:41:21.054Z,26.90
2022-08-14T07:43:56.083Z,26.90
2022-08-14T07:46:28.255Z,26.80
2022-08-14T07:48:58.141Z,26.80
2022-08-14T07:51:36.850Z,26.80
2022-08-14T07:54:11.190Z,26.90
2022-08-14T07:56:47.880Z,26.90
2022-08-14T07:59:40.604Z,26.80
2022-08-14T08:02:17.463Z,26.80
2022-08-14T08:04:54.161Z,26.80
2022-08-14T08:07:29.891Z,26.80
2022-08-14T08:10:00.818Z,26.80
2022-08-14T08:12:32.625Z,26.80
2022-08-14T08:15:07.062Z,26.80
2022-08-14T08:17:38.725Z,26.80
2022-08-14T08:20:11.576Z,26.70
2022-08-14T08:22:48.218Z,26.70
2022-08-14T08:25:19.005Z,26.70
2022-08-14T08:27:57.848Z,26.70
2022-08-14T08:30:27.180Z,26.80
2022-08-14T08:33:02.972Z,26.80
2022-08-14T08:35:47.151Z,26.80
2022-08-14T08:39:18.619Z,26.80
2022-08-14T08:41:13.175Z,26.90
2022-08-14T08:43:47.084Z,26.80
2022-08-14T08:46:18.838Z,26.90
2022-08-14T08:48:54.097Z,27.00
2022-08-14T08:51:30.489Z,27.00
2022-08-14T08:54:03.411Z,27.00
2022-08-14T08:56:42.096Z,27.00
2022-08-14T08:59:20.385Z,27.00
2022-08-14T09:01:56.499Z,27.10
2022-08-14T09:04:27.334Z,27.10
2022-08-14T09:07:09.551Z,27.20
2022-08-14T09:09:53.597Z,27.20
2022-08-14T09:12:23.892Z,27.20
2022-08-14T09:14:53.386Z,27.30
2022-08-14T09:17:25.827Z,27.50
2022-08-14T09:19:55.324Z,27.50
2022-08-14T09:22:35.138Z,27.60
2022-08-14T09:25:07.804Z,27.60
2022-08-14T09:27:37.652Z,27.60
2022-08-14T09:30:30.942Z,27.50
2022-08-14T09:33:36.333Z,27.50
2022-08-14T09:36:36.873Z,27.50
2022-08-14T09:39:22.822Z,27.40
2022-08-14T09:42:20.943Z,27.40
2022-08-14T09:45:11.764Z,27.40
2022-08-14T09:47:46.699Z,27.40
2022-08-14T09:50:25.686Z,27.40
2022-08-14T09:52:59.589Z,27.30
2022-08-14T09:55:36.852Z,27.30
2022-08-14T09:58:20.095Z,27.30
2022-08-14T10:00:54.696Z,27.30
2022-08-14T10:03:33.940Z,27.30
2022-08-14T10:06:10.603Z,27.30
2022-08-14T10:08:51.166Z,27.30
2022-08-14T10:11:23.043Z,27.40
2022-08-14T10:13:56.205Z,27.40
2022-08-14T10:16:33.803Z,27.40
2022-08-14T10:19:07.233Z,27.40
2022-08-14T10:21:38.569Z,27.50
2022-08-14T10:24:09.009Z,27.50
2022-08-14T10:26:43.622Z,27.60
2022-08-14T10:29:18.532Z,27.70
2022-08-14T10:32:18.297Z,27.70
2022-08-14T10:35:14.055Z,27.80
2022-08-14T10:37:48.588Z,27.90
2022-08-14T10:40:38.387Z,27.90
2022-08-14T10:43:23.203Z,27.90
2022-08-14T10:46:21.749Z,28.00
2022-08-14T10:48:58.999Z,28.10
2022-08-14T10:51:30.256Z,28.10
2022-08-14T10:54:17.153Z,28.20
2022-08-14T10:56:58.733Z,28.30
2022-08-14T10:59:30.594Z,28.40
2022-08-14T11:02:02.729Z,28.50
2022-08-14T11:04:32.122Z,28.50
2022-08-14T11:07:05.887Z,28.50
2022-08-14T11:09:35.292Z,28.60
2022-08-14T11:12:33.236Z,28.70
2022-08-14T11:14:59.402Z,28.80
2022-08-14T11:17:31.743Z,28.90
2022-08-14T11:20:03.411Z,29.00
2022-08-14T11:22:56.626Z,29.10
2022-08-14T11:25:23.857Z,29.20
2022-08-14T11:27:54.945Z,29.20
2022-08-14T11:30:49.108Z,29.40
2022-08-14T11:33:16.383Z,29.50
2022-08-14T11:35:49.838Z,29.60
2022-08-14T11:38:20.133Z,29.70
2022-08-14T11:40:50.387Z,29.70
2022-08-14T11:43:29.160Z,29.90
2022-08-14T11:45:58.537Z,30.00
2022-08-14T11:49:01.876Z,30.10
2022-08-14T11:51:26.186Z,30.20
2022-08-14T11:54:03.520Z,30.30
2022-08-14T11:56:37.294Z,30.40
2022-08-14T11:59:10.268Z,30.40
2022-08-14T12:01:41.147Z,30.50
2022-08-14T12:04:21.634Z,30.50
2022-08-14T12:07:01.879Z,30.60
2022-08-14T12:09:35.420Z,30.60
2022-08-14T12:12:16.239Z,30.60
2022-08-14T12:15:03.574Z,30.60
2022-08-14T12:17:49.336Z,30.60
2022-08-14T12:20:30.223Z,30.60
2022-08-14T12:23:05.191Z,30.50
2022-08-14T12:25:35.157Z,30.60
2022-08-14T12:28:27.136Z,30.60
2022-08-14T12:31:00.266Z,30.60
2022-08-14T12:33:33.385Z,30.60
2022-08-14T12:36:06.298Z,30.70
2022-08-14T12:38:43.614Z,30.70
2022-08-14T12:41:16.320Z,30.70
2022-08-14T12:43:59.439Z,30.70
2022-08-14T12:46:30.595Z,30.60
2022-08-14T12:49:06.439Z,30.60
2022-08-14T12:51:38.146Z,30.60
2022-08-14T12:54:27.204Z,30.50
2022-08-14T12:57:06.334Z,30.50
2022-08-14T12:59:37.289Z,30.50
2022-08-14T13:02:25.371Z,30.50
2022-08-14T13:04:56.571Z,30.50
2022-08-14T13:07:32.642Z,30.40
2022-08-14T13:10:12.774Z,30.40
2022-08-14T13:13:12.674Z,30.40
2022-08-14T13:15:41.809Z,30.30
2022-08-14T13:18:16.062Z,30.20
2022-08-14T13:20:49.459Z,30.10
2022-08-14T13:23:32.138Z,30.10
2022-08-14T13:26:02.829Z,30.00
2022-08-14T13:28:34.153Z,29.90
2022-08-14T13:31:10.935Z,29.80
2022-08-14T13:33:41.168Z,29.80
2022-08-14T13:36:23.642Z,29.60
2022-08-14T13:38:56.384Z,29.70
2022-08-14T13:41:36.124Z,29.60
2022-08-14T13:44:05.418Z,29.50
2022-08-14T13:46:44.505Z,29.40
2022-08-14T13:49:15.380Z,29.30
2022-08-14T13:51:48.874Z,29.30
2022-08-14T13:54:25.247Z,29.20
2022-08-14T13:56:55.672Z,29.20
2022-08-14T13:59:38.042Z,29.20
2022-08-14T14:02:08.831Z,29.10
2022-08-14T14:04:41.519Z,29.00
2022-08-14T14:07:16.020Z,28.90
2022-08-14T14:09:51.007Z,28.80
2022-08-14T14:12:36.453Z,28.70
2022-08-14T14:15:11.742Z,28.70
2022-08-14T14:17:40.955Z,28.60
2022-08-14T14:20:35.973Z,28.50
2022-08-14T14:23:09.514Z,28.40
2022-08-14T14:25:51.235Z,28.40
2022-08-14T14:28:32.611Z,28.30
2022-08-14T14:31:06.879Z,28.30
2022-08-14T14:33:52.078Z,28.20
2022-08-14T14:36:24.387Z,28.20
2022-08-14T14:38:54.324Z,28.20
2022-08-14T14:41:37.600Z,28.20
2022-08-14T14:44:09.228Z,28.10
2022-08-14T14:46:41.659Z,28.10
2022-08-14T14:49:14.654Z,28.10
2022-08-14T14:51:46.632Z,28.10
2022-08-14T14:54:31.493Z,28.10
2022-08-14T14:57:09.035Z,28.00
2022-08-14T14:59:40.150Z,28.00
2022-08-14T15:02:11.902Z,28.00
2022-08-14T15:04:43.474Z,28.00
2022-08-14T15:07:13.115Z,28.00
2022-08-14T15:09:44.876Z,27.90
2022-08-14T15:12:52.154Z,27.80
2022-08-14T15:15:08.820Z,27.90
2022-08-14T15:17:42.477Z,27.80
2022-08-14T15:20:17.404Z,27.80
2022-08-14T15:23:01.104Z,27.80
2022-08-14T15:25:41.054Z,27.80
2022-08-14T15:28:13.154Z,27.70
2022-08-14T15:30:50.967Z,27.70
2022-08-14T15:34:01.064Z,27.70
2022-08-14T15:36:29.369Z,27.70
2022-08-14T15:38:59.607Z,27.70
2022-08-14T15:41:41.203Z,27.70
2022-08-14T15:44:25.284Z,27.70
2022-08-14T15:46:56.322Z,27.70
2022-08-14T15:49:34.434Z,27.70
2022-08-14T15:52:04.988Z,27.70
2022-08-14T15:54:33.979Z,27.60
2022-08-14T15:57:06.229Z,27.70
2022-08-14T15:59:57.043Z,27.70
2022-08-14T16:02:27.951Z,27.60
2022-08-14T16:04:57.185Z,27.60
2022-08-14T16:07:27.356Z,27.60
2022-08-14T16:10:27.715Z,27.60
2022-08-14T16:12:47.745Z,27.60
2022-08-14T16:15:21.118Z,27.60
2022-08-14T16:17:50.420Z,27.60
2022-08-14T16:20:41.767Z,27.60
2022-08-14T16:23:11.686Z,27.60
2022-08-14T16:25:41.629Z,27.60
2022-08-14T16:28:27.025Z,27.50
2022-08-14T16:31:00.634Z,27.50
2022-08-14T16:33:58.930Z,27.60
2022-08-14T16:36:30.138Z,27.50
2022-08-14T16:39:01.967Z,27.50
2022-08-14T16:41:30.458Z,27.40
2022-08-14T16:44:02.532Z,27.40
2022-08-14T16:46:38.175Z,27.40
2022-08-14T16:49:10.926Z,27.40
2022-08-14T16:51:40.798Z,27.40
2022-08-14T16:54:33.994Z,27.30
2022-08-14T16:57:16.258Z,27.40
2022-08-14T16:59:57.180Z,27.40
2022-08-14T17:02:36.834Z,27.30
2022-08-14T17:05:21.940Z,27.30
2022-08-14T17:08:31.914Z,27.30
2022-08-14T17:11:09.997Z,27.30
2022-08-14T17:13:58.517Z,27.20
2022-08-14T17:16:37.708Z,27.20
2022-08-14T17:19:11.592Z,27.20
2022-08-14T17:21:47.401Z,27.20
2022-08-14T17:24:57.803Z,27.10
2022-08-14T17:27:08.191Z,27.10
2022-08-14T17:29:44.673Z,27.10
2022-08-14T17:32:29.518Z,27.10
2022-08-14T17:35:16.443Z,27.00
2022-08-14T17:37:56.010Z,27.00
2022-08-14T17:40:30.799Z,27.00
2022-08-14T17:43:02.054Z,27.00
2022-08-14T17:45:46.691Z,26.90
2022-08-14T17:49:15.718Z,26.90
2022-08-14T17:51:23.641Z,26.90
2022-08-14T17:54:02.483Z,26.80
2022-08-14T17:56:36.187Z,26.80
2022-08-14T17:59:07.466Z,26.70
2022-08-14T18:01:40.858Z,26.70
2022-08-14T18:04:24.653Z,26.70
2022-08-14T18:07:08.760Z,26.60
2022-08-14T18:09:40.275Z,26.60
2022-08-14T18:12:36.819Z,26.60
2022-08-14T18:15:16.236Z,26.50
2022-08-14T18:17:52.484Z,26.50
2022-08-14T18:21:42.625Z,26.50
2022-08-14T18:23:15.477Z,26.40
2022-08-14T18:25:52.105Z,26.40
2022-08-14T18:28:47.975Z,26.40
2022-08-14T18:31:43.553Z,26.40
2022-08-14T18:34:31.959Z,26.40
2022-08-14T18:37:17.593Z,26.40
2022-08-14T18:40:03.366Z,26.30
2022-08-14T18:42:45.636Z,26.30
2022-08-14T18:45:19.009Z,26.30
2022-08-14T18:48:14.593Z,26.30
2022-08-14T18:50:54.177Z,26.30
2022-08-14T18:53:24.342Z,26.30
2022-08-14T18:55:59.996Z,26.20
2022-08-14T18:58:46.449Z,26.10
2022-08-14T19:01:25.125Z,26.00
2022-08-14T19:04:01.069Z,25.90
2022-08-14T19:06:56.278Z,25.80
2022-08-14T19:09:58.270Z,25.70
2022-08-14T19:13:11.555Z,25.60
2022-08-14T19:15:44.353Z,25.50
2022-08-14T19:18:38.417Z,25.30
2022-08-14T19:21:13.067Z,25.20
2022-08-14T19:23:44.789Z,25.20
2022-08-14T19:26:36.005Z,25.10
2022-08-14T19:29:35.976Z,25.00
2022-08-14T19:32:22.582Z,25.00
2022-08-14T19:34:52.493Z,25.00
2022-08-14T19:37:47.806Z,25.00
2022-08-14T19:40:31.706Z,24.90
2022-08-14T19:43:06.327Z,24.90
2022-08-14T19:45:38.193Z,24.80
2022-08-14T19:48:14.155Z,24.80
2022-08-14T19:50:46.746Z,24.70
2022-08-14T19:53:18.323Z,24.70
2022-08-14T19:55:59.609Z,24.60
2022-08-14T19:58:54.994Z,24.60
2022-08-14T20:01:37.085Z,24.60
2022-08-14T20:04:44.929Z,24.60
2022-08-14T20:07:01.901Z,24.50
2022-08-14T20:11:11.599Z,24.50
2022-08-14T20:12:36.546Z,24.50
2022-08-14T20:15:21.184Z,24.40
2022-08-14T20:17:53.058Z,24.40
2022-08-14T20:20:31.706Z,24.40
2022-08-14T20:23:11.273Z,24.30
2022-08-14T20:25:45.539Z,24.30
2022-08-14T20:28:32.069Z,24.20
2022-08-14T20:31:15.821Z,24.20
2022-08-14T20:34:06.779Z,24.20
2022-08-14T20:36:40.457Z,24.20
2022-08-14T20:39:15.043Z,24.10
2022-08-14T20:41:49.833Z,24.10
2022-08-14T20:44:39.176Z,24.10
2022-08-14T20:47:08.382Z,24.10
2022-08-14T20:49:38.146Z,24.10
2022-08-14T20:52:19.215Z,24.10
2022-08-14T20:54:51.451Z,24.10
2022-08-14T20:57:20.958Z,24.10
2022-08-14T20:59:53.614Z,24.10
2022-08-14T21:02:50.237Z,24.00
2022-08-14T21:05:22.559Z,24.00
2022-08-14T21:08:08.400Z,23.90
2022-08-14T21:10:54.980Z,23.90
2022-08-14T21:14:09.236Z,23.90
2022-08-14T21:16:25.703Z,23.90
2022-08-14T21:19:06.239Z,23.80
2022-08-14T21:21:41.898Z,23.80
2022-08-14T21:24:38.953Z,23.80
2022-08-14T21:27:12.437Z,23.80
2022-08-14T21:29:49.855Z,23.70
2022-08-14T21:32:47.070Z,23.80
2022-08-14T21:35:22.620Z,23.70
2022-08-14T21:37:52.622Z,23.70
2022-08-14T21:40:41.195Z,23.70
2022-08-14T21:43:17.831Z,23.70
2022-08-14T21:45:53.130Z,23.70
2022-08-14T21:48:25.395Z,23.60
2022-08-14T21:51:01.789Z,23.60
2022-08-14T21:53:58.817Z,23.60
2022-08-14T21:56:37.149Z,23.50
2022-08-14T21:59:09.630Z,23.50
2022-08-14T22:02:00.460Z,23.50
2022-08-14T22:04:32.661Z,23.50
2022-08-14T22:07:05.521Z,23.50
2022-08-14T22:09:36.981Z,23.40
2022-08-14T22:12:07.363Z,23.40
2022-08-14T22:14:43.284Z,23.40
2022-08-14T22:17:17.259Z,23.40
2022-08-14T22:19:55.035Z,23.50
2022-08-14T22:22:27.344Z,23.50
2022-08-14T22:24:59.971Z,23.50
2022-08-14T22:27:32.611Z,23.50
2022-08-14T22:30:02.376Z,23.50
2022-08-14T22:32:35.259Z,23.50
2022-08-14T22:35:23.549Z,23.50
2022-08-14T22:38:36.309Z,23.50
2022-08-14T22:41:09.177Z,23.50
2022-08-14T22:43:35.934Z,23.60
2022-08-14T22:46:15.156Z,23.60
2022-08-14T22:48:49.828Z,23.60
2022-08-14T22:51:21.822Z,23.60
2022-08-14T22:53:55.000Z,23.60
2022-08-14T22:56:29.358Z,23.70
2022-08-14T22:58:59.818Z,23.70
2022-08-14T23:01:56.239Z,23.70
2022-08-14T23:04:35.823Z,23.70
2022-08-14T23:07:21.797Z,23.70
2022-08-14T23:09:56.434Z,23.70
2022-08-14T23:12:31.607Z,23.70
2022-08-14T23:15:01.170Z,23.70
2022-08-14T23:17:38.762Z,23.70
2022-08-14T23:20:19.320Z,23.70
2022-08-14T23:22:51.290Z,23.70
2022-08-14T23:25:57.954Z,23.70
2022-08-14T23:28:34.157Z,23.70
2022-08-14T23:31:08.191Z,23.60
2022-08-14T23:33:46.144Z,23.60
2022-08-14T23:36:31.583Z,23.60
2022-08-14T23:39:10.192Z,23.60
2022-08-14T23:41:46.416Z,23.60
2022-08-14T23:44:24.517Z,23.60
2022-08-14T23:46:57.088Z,23.60
2022-08-14T23:49:59.795Z,23.50
2022-08-14T23:52:50.677Z,23.50
2022-08-14T23:55:11.307Z,23.60
2022-08-14T23:57:44.056Z,23.50
